createdAt,value
2018-11-22T12:18:00.652Z,5.40
2018-11-22T12:20:29.703Z,5.40
2018-11-22T12:22:59.366Z,5.50
2018-11-22T12:25:29.165Z,5.50
2018-11-22T12:28:00.416Z,5.60
2018-11-22T12:30:30.943Z,5.60
2018-11-22T12:34:03.037Z,5.60
2018-11-22T12:36:37.469Z,5.60
2018-11-22T12:39:10.735Z,5.60
2018-11-22T12:41:39.930Z,5.60
2018-11-22T12:44:09.077Z,5.70
2018-11-22T12:46:38.769Z,5.70
2018-11-22T12:49:07.882Z,5.70
2018-11-22T12:51:36.899Z,5.70
2018-11-22T12:54:05.946Z,5.70
2018-11-22T12:56:34.923Z,5.80
2018-11-22T12:59:03.981Z,5.80
2018-11-22T13:01:33.114Z,5.80
2018-11-22T13:04:02.403Z,5.80
2018-11-22T13:06:31.415Z,5.80
2018-11-22T13:09:00.507Z,5.80
2018-11-22T13:11:29.510Z,5.80
2018-11-22T13:13:58.575Z,5.80
2018-11-22T13:16:27.571Z,5.80
2018-11-22T13:18:59.383Z,5.80
2018-11-22T13:21:25.489Z,5.80
2018-11-22T13:23:54.519Z,5.90
2018-11-22T13:26:23.525Z,5.90
2018-11-22T13:28:52.541Z,5.90
2018-11-22T13:31:21.603Z,5.90
2018-11-22T13:33:50.636Z,5.90
2018-11-22T13:36:19.859Z,5.80
2018-11-22T13:38:48.927Z,5.80
2018-11-22T13:41:17.902Z,5.80
2018-11-22T13:43:46.902Z,5.80
2018-11-22T13:46:15.982Z,5.80
2018-11-22T13:48:44.992Z,5.80
2018-11-22T13:51:13.967Z,5.70
2018-11-22T13:53:42.963Z,5.70
2018-11-22T13:56:11.989Z,5.70
2018-11-22T13:58:41.084Z,5.60
2018-11-22T14:01:10.188Z,5.60
2018-11-22T14:03:39.156Z,5.60
2018-11-22T14:06:08.129Z,5.60
2018-11-22T14:08:37.137Z,5.60
2018-11-22T14:11:13.397Z,5.60
2018-11-22T14:13:35.476Z,5.50
2018-11-22T14:16:04.473Z,4.80
2018-11-22T14:18:33.439Z,5.50
2018-11-22T14:21:02.459Z,5.40
2018-11-22T14:23:31.524Z,5.40
2018-11-22T14:26:00.616Z,5.40
2018-11-22T14:28:29.687Z,5.40
2018-11-22T14:30:58.686Z,5.30
2018-11-22T14:33:27.735Z,5.30
2018-11-22T14:35:56.814Z,5.30
2018-11-22T14:38:25.852Z,5.30
2018-11-22T14:40:54.818Z,5.30
2018-11-22T14:43:23.777Z,5.30
2018-11-22T14:45:52.740Z,5.30
2018-11-22T14:48:21.831Z,5.30
2018-11-22T14:50:56.317Z,5.20
2018-11-22T14:53:25.310Z,5.20
2018-11-22T14:55:54.399Z,5.20
2018-11-22T14:58:23.581Z,5.20
2018-11-22T15:00:52.593Z,5.20
2018-11-22T15:03:21.681Z,5.20
2018-11-22T15:05:50.813Z,5.20
2018-11-22T15:08:19.876Z,5.10
2018-11-22T15:10:48.884Z,5.10
2018-11-22T15:13:17.898Z,5.10
2018-11-22T15:15:46.913Z,5.10
2018-11-22T15:18:15.953Z,5.10
2018-11-22T15:20:44.929Z,5.10
2018-11-22T15:23:13.908Z,5.10
2018-11-22T15:25:43.173Z,5.10
2018-11-22T15:28:12.194Z,5.10
2018-11-22T15:30:41.233Z,5.10
2018-11-22T15:33:10.264Z,5.10
2018-11-22T15:35:39.385Z,5.00
2018-11-22T15:38:08.480Z,5.00
2018-11-22T15:40:37.560Z,5.00
2018-11-22T15:43:06.657Z,5.00
2018-11-22T15:45:36.039Z,5.00
2018-11-22T15:48:05.114Z,5.00
2018-11-22T15:50:34.179Z,5.00
2018-11-22T15:53:03.183Z,4.90
2018-11-22T15:55:32.291Z,4.90
2018-11-22T15:58:01.749Z,4.90
2018-11-22T16:00:32.986Z,4.90
2018-11-22T16:03:02.615Z,4.90
2018-11-22T16:05:32.434Z,4.90
2018-11-22T16:08:01.733Z,4.90
2018-11-22T16:10:33.664Z,4.90
2018-11-22T16:13:05.221Z,4.90
2018-11-22T16:15:40.220Z,4.90
2018-11-22T16:18:09.438Z,4.80
2018-11-22T16:20:38.681Z,4.80
2018-11-22T16:23:07.755Z,4.80
2018-11-22T16:25:36.882Z,4.80
2018-11-22T16:28:06.315Z,4.80
2018-11-22T16:30:35.765Z,4.80
2018-11-22T16:33:04.935Z,4.80
2018-11-22T16:35:34.655Z,4.80
2018-11-22T16:38:03.745Z,4.80
2018-11-22T16:40:32.866Z,4.70
2018-11-22T16:43:03.015Z,4.70
2018-11-22T16:45:33.225Z,4.70
2018-11-22T16:48:03.775Z,4.60
2018-11-22T16:50:34.095Z,4.60
2018-11-22T16:53:03.121Z,4.60
2018-11-22T16:55:32.142Z,4.50
2018-11-22T16:58:02.195Z,4.50
2018-11-22T17:00:32.545Z,4.50
2018-11-22T17:03:04.037Z,4.40
2018-11-22T17:05:33.609Z,4.40
2018-11-22T17:08:03.701Z,4.40
2018-11-22T17:10:33.426Z,4.40
2018-11-22T17:13:03.527Z,4.30
2018-11-22T17:15:36.788Z,4.30
2018-11-22T17:18:06.848Z,4.30
2018-11-22T17:20:36.097Z,4.40
2018-11-22T17:23:06.030Z,4.40
2018-11-22T17:25:36.065Z,4.40
2018-11-22T17:28:06.756Z,4.40
2018-11-22T17:30:39.498Z,4.40
2018-11-22T17:33:08.525Z,4.40
2018-11-22T17:35:37.954Z,4.40
2018-11-22T17:38:08.303Z,4.40
2018-11-22T17:40:40.855Z,4.40
2018-11-22T17:43:09.867Z,4.40
2018-11-22T17:45:43.657Z,4.40
2018-11-22T17:48:12.681Z,4.40
2018-11-22T17:50:43.348Z,4.40
2018-11-22T17:53:13.232Z,4.40
2018-11-22T17:55:42.322Z,4.40
2018-11-22T17:58:11.847Z,4.40
2018-11-22T18:00:46.631Z,4.40
2018-11-22T18:03:15.821Z,4.50
2018-11-22T18:05:44.936Z,4.50
2018-11-22T18:08:14.050Z,4.50
2018-11-22T18:10:43.560Z,4.50
2018-11-22T18:13:12.596Z,4.50
2018-11-22T18:15:56.951Z,4.40
2018-11-22T18:18:26.872Z,4.40
2018-11-22T18:20:55.937Z,4.40
2018-11-22T18:23:24.975Z,4.40
2018-11-22T18:25:53.939Z,4.40
2018-11-22T18:28:22.991Z,4.40
2018-11-22T18:30:52.009Z,4.40
2018-11-22T18:33:21.125Z,4.40
2018-11-22T18:35:50.324Z,4.40
2018-11-22T18:38:19.359Z,4.40
2018-11-22T18:40:48.430Z,4.40
2018-11-22T18:43:17.537Z,4.40
2018-11-22T18:45:47.391Z,4.40
2018-11-22T18:48:17.705Z,4.40
2018-11-22T18:50:47.273Z,4.40
2018-11-22T18:53:16.359Z,4.40
2018-11-22T18:55:45.347Z,4.40
2018-11-22T18:58:14.528Z,4.40
2018-11-22T19:00:45.040Z,4.40
2018-11-22T19:03:15.868Z,4.40
2018-11-22T19:05:44.967Z,4.40
2018-11-22T19:08:14.284Z,4.40
2018-11-22T19:10:43.977Z,4.40
2018-11-22T19:13:13.704Z,4.40
2018-11-22T19:15:44.306Z,4.40
2018-11-22T19:18:14.044Z,4.40
2018-11-22T19:20:44.013Z,4.40
2018-11-22T19:23:13.555Z,4.40
2018-11-22T19:25:42.651Z,4.40
2018-11-22T19:28:11.799Z,4.40
2018-11-22T19:30:42.517Z,4.40
2018-11-22T19:33:12.975Z,4.40
2018-11-22T19:35:43.727Z,4.40
2018-11-22T19:38:12.806Z,4.40
2018-11-22T19:40:42.592Z,4.40
2018-11-22T19:43:12.039Z,4.40
2018-11-22T19:45:42.895Z,4.40
2018-11-22T19:48:11.940Z,4.40
2018-11-22T19:50:41.111Z,4.40
2018-11-22T19:53:11.761Z,4.40
2018-11-22T19:55:41.325Z,4.30
2018-11-22T19:58:12.010Z,4.30
2018-11-22T20:00:41.291Z,4.30
2018-11-22T20:03:10.723Z,4.30
2018-11-22T20:05:40.682Z,4.30
2018-11-22T20:08:11.455Z,4.20
2018-11-22T20:10:41.957Z,4.20
2018-11-22T20:13:11.094Z,4.30
2018-11-22T20:15:40.198Z,4.30
2018-11-22T20:18:10.399Z,4.30
2018-11-22T20:20:39.447Z,4.30
2018-11-22T20:23:08.478Z,4.30
2018-11-22T20:25:37.680Z,4.30
2018-11-22T20:28:06.835Z,4.30
2018-11-22T20:30:37.708Z,4.30
2018-11-22T20:33:06.843Z,4.30
2018-11-22T20:35:35.999Z,4.30
2018-11-22T20:38:05.345Z,4.40
2018-11-22T20:40:34.462Z,4.40
2018-11-22T20:43:03.649Z,4.40
2018-11-22T20:45:33.105Z,4.40
2018-11-22T20:48:03.783Z,4.40
2018-11-22T20:50:33.544Z,4.40
2018-11-22T20:53:02.558Z,4.30
2018-11-22T20:55:34.159Z,4.40
2018-11-22T20:58:04.422Z,4.30
2018-11-22T21:00:35.093Z,4.30
2018-11-22T21:03:04.375Z,4.30
2018-11-22T21:05:33.516Z,4.30
2018-11-22T21:08:02.656Z,4.30
2018-11-22T21:10:32.657Z,4.30
2018-11-22T21:13:01.774Z,4.30
2018-11-22T21:15:32.308Z,4.30
2018-11-22T21:18:04.452Z,4.30
2018-11-22T21:20:35.805Z,4.30
2018-11-22T21:23:05.071Z,4.20
2018-11-22T21:25:34.107Z,4.20
2018-11-22T21:28:03.287Z,4.20
2018-11-22T21:30:35.064Z,4.10
2018-11-22T21:33:04.436Z,4.10
2018-11-22T21:35:33.844Z,4.10
2018-11-22T21:38:03.954Z,4.10
2018-11-22T21:40:33.654Z,4.10
2018-11-22T21:43:02.779Z,4.10
2018-11-22T21:45:32.710Z,4.00
2018-11-22T21:48:01.692Z,4.00
2018-11-22T21:50:30.737Z,4.00
2018-11-22T21:53:00.828Z,4.00
2018-11-22T21:55:30.452Z,4.00
2018-11-22T21:58:00.751Z,4.00
2018-11-22T22:00:33.608Z,4.00
2018-11-22T22:03:05.037Z,4.00
2018-11-22T22:05:34.177Z,4.00
2018-11-22T22:08:03.367Z,4.00
2018-11-22T22:10:32.539Z,4.00
2018-11-22T22:13:01.782Z,4.00
2018-11-22T22:15:32.064Z,4.00
2018-11-22T22:18:01.369Z,4.00
2018-11-22T22:20:31.967Z,3.90
2018-11-22T22:23:01.045Z,3.90
2018-11-22T22:25:30.141Z,3.90
2018-11-22T22:27:59.911Z,3.90
2018-11-22T22:30:30.684Z,3.90
2018-11-22T22:33:01.356Z,3.90
2018-11-22T22:35:30.470Z,3.90
2018-11-22T22:37:59.546Z,3.90
2018-11-22T22:40:29.656Z,3.90
2018-11-22T22:42:59.318Z,3.90
2018-11-22T22:45:29.547Z,3.90
2018-11-22T22:47:58.603Z,3.90
2018-11-22T22:50:28.775Z,3.80
2018-11-22T22:52:59.131Z,3.80
2018-11-22T22:55:28.719Z,3.80
2018-11-22T22:57:57.777Z,3.80
2018-11-22T23:00:32.680Z,3.80
2018-11-22T23:03:03.384Z,3.80
2018-11-22T23:05:33.012Z,3.80
2018-11-22T23:08:02.067Z,3.80
2018-11-22T23:10:31.223Z,3.80
2018-11-22T23:13:00.865Z,3.80
2018-11-22T23:15:31.111Z,3.80
2018-11-22T23:18:00.164Z,3.80
2018-11-22T23:20:31.764Z,3.80
2018-11-22T23:23:00.727Z,3.80
2018-11-22T23:25:30.385Z,3.80
2018-11-22T23:27:59.348Z,3.80
2018-11-22T23:30:29.758Z,3.80
2018-11-22T23:33:05.280Z,3.80
2018-11-22T23:35:34.294Z,3.80
2018-11-22T23:38:03.352Z,3.80
2018-11-22T23:40:33.255Z,3.80
2018-11-22T23:43:02.306Z,3.80
2018-11-22T23:45:32.143Z,3.80
2018-11-22T23:48:01.277Z,3.80
2018-11-22T23:50:31.383Z,3.80
2018-11-22T23:53:01.403Z,3.80
2018-11-22T23:55:30.468Z,3.80
2018-11-22T23:57:59.508Z,3.80
